sensor_id;sensor_type;location;lat;lon;timestamp;temperature;humidity
55313;DHT22;46892;45.668;11.756;2022-08-06T00:01:35;26.00;68.30
55313;DHT22;46892;45.668;11.756;2022-08-06T00:04:01;25.90;68.00
55313;DHT22;46892;45.668;11.756;2022-08-06T00:06:26;25.80;68.80
55313;DHT22;46892;45.668;11.756;2022-08-06T00:08:52;25.80;68.90
55313;DHT22;46892;45.668;11.756;2022-08-06T00:11:18;25.70;69.10
55313;DHT22;46892;45.668;11.756;2022-08-06T00:13:44;25.80;67.70
55313;DHT22;46892;45.668;11.756;2022-08-06T00:16:09;25.70;67.50
55313;DHT22;46892;45.668;11.756;2022-08-06T00:18:35;25.70;67.70
55313;DHT22;46892;45.668;11.756;2022-08-06T00:21:01;25.80;66.70
55313;DHT22;46892;45.668;11.756;2022-08-06T00:23:27;25.80;67.90
55313;DHT22;46892;45.668;11.756;2022-08-06T00:25:53;25.80;67.70
55313;DHT22;46892;45.668;11.756;2022-08-06T00:28:23;25.80;67.10
55313;DHT22;46892;45.668;11.756;2022-08-06T00:30:49;25.90;64.30
55313;DHT22;46892;45.668;11.756;2022-08-06T00:33:14;26.00;62.50
55313;DHT22;46892;45.668;11.756;2022-08-06T00:35:40;26.20;61.00
55313;DHT22;46892;45.668;11.756;2022-08-06T00:38:06;26.40;59.40
55313;DHT22;46892;45.668;11.756;2022-08-06T00:40:31;26.40;61.70
55313;DHT22;46892;45.668;11.756;2022-08-06T00:42:59;26.30;62.00
55313;DHT22;46892;45.668;11.756;2022-08-06T00:45:25;26.20;62.90
55313;DHT22;46892;45.668;11.756;2022-08-06T00:47:54;26.20;63.80
55313;DHT22;46892;45.668;11.756;2022-08-06T00:50:19;26.10;64.10
55313;DHT22;46892;45.668;11.756;2022-08-06T00:52:45;26.00;63.90
55313;DHT22;46892;45.668;11.756;2022-08-06T00:55:12;26.00;63.80
55313;DHT22;46892;45.668;11.756;2022-08-06T00:57:38;25.90;63.30
55313;DHT22;46892;45.668;11.756;2022-08-06T01:00:05;25.90;62.70
55313;DHT22;46892;45.668;11.756;2022-08-06T01:02:31;25.90;60.70
55313;DHT22;46892;45.668;11.756;2022-08-06T01:04:57;26.20;59.20
55313;DHT22;46892;45.668;11.756;2022-08-06T01:07:22;26.40;56.90
55313;DHT22;46892;45.668;11.756;2022-08-06T01:09:48;26.60;56.90
55313;DHT22;46892;45.668;11.756;2022-08-06T01:12:15;26.70;56.50
55313;DHT22;46892;45.668;11.756;2022-08-06T01:14:42;26.70;56.50
55313;DHT22;46892;45.668;11.756;2022-08-06T01:17:34;26.70;57.90
55313;DHT22;46892;45.668;11.756;2022-08-06T01:26:05;26.50;59.90
55313;DHT22;46892;45.668;11.756;2022-08-06T01:28:42;26.30;60.70
55313;DHT22;46892;45.668;11.756;2022-08-06T01:31:23;26.20;61.60
55313;DHT22;46892;45.668;11.756;2022-08-06T01:33:54;26.10;62.10
55313;DHT22;46892;45.668;11.756;2022-08-06T01:36:36;26.00;62.60
55313;DHT22;46892;45.668;11.756;2022-08-06T01:39:02;26.00;62.30
55313;DHT22;46892;45.668;11.756;2022-08-06T01:41:43;25.90;62.60
55313;DHT22;46892;45.668;11.756;2022-08-06T01:44:13;25.80;63.00
55313;DHT22;46892;45.668;11.756;2022-08-06T01:46:44;25.90;64.00
55313;DHT22;46892;45.668;11.756;2022-08-06T01:49:10;25.90;61.90
55313;DHT22;46892;45.668;11.756;2022-08-06T01:51:37;26.00;61.50
55313;DHT22;46892;45.668;11.756;2022-08-06T01:54:07;26.10;61.60
55313;DHT22;46892;45.668;11.756;2022-08-06T01:56:37;26.10;61.10
55313;DHT22;46892;45.668;11.756;2022-08-06T01:59:04;26.10;60.20
55313;DHT22;46892;45.668;11.756;2022-08-06T02:01:33;26.20;58.20
55313;DHT22;46892;45.668;11.756;2022-08-06T02:04:00;26.40;57.30
55313;DHT22;46892;45.668;11.756;2022-08-06T02:06:36;26.60;56.30
55313;DHT22;46892;45.668;11.756;2022-08-06T02:09:09;26.70;55.90
55313;DHT22;46892;45.668;11.756;2022-08-06T02:11:37;26.80;55.40
55313;DHT22;46892;45.668;11.756;2022-08-06T02:14:05;26.80;55.60
55313;DHT22;46892;45.668;11.756;2022-08-06T02:16:35;26.90;53.60
55313;DHT22;46892;45.668;11.756;2022-08-06T02:19:03;27.00;54.60
55313;DHT22;46892;45.668;11.756;2022-08-06T02:21:32;27.00;54.90
55313;DHT22;46892;45.668;11.756;2022-08-06T02:24:03;27.00;57.40
55313;DHT22;46892;45.668;11.756;2022-08-06T02:26:30;26.80;58.50
55313;DHT22;46892;45.668;11.756;2022-08-06T02:28:59;26.70;58.00
55313;DHT22;46892;45.668;11.756;2022-08-06T02:31:25;26.70;54.70
55313;DHT22;46892;45.668;11.756;2022-08-06T02:33:51;26.70;54.30
55313;DHT22;46892;45.668;11.756;2022-08-06T02:36:28;26.90;52.90
55313;DHT22;46892;45.668;11.756;2022-08-06T02:39:25;27.10;52.80
55313;DHT22;46892;45.668;11.756;2022-08-06T02:42:14;27.20;51.80
55313;DHT22;46892;45.668;11.756;2022-08-06T02:45:06;27.40;51.50
55313;DHT22;46892;45.668;11.756;2022-08-06T02:47:39;27.60;50.80
55313;DHT22;46892;45.668;11.756;2022-08-06T02:50:08;27.60;51.20
55313;DHT22;46892;45.668;11.756;2022-08-06T02:52:40;27.60;50.50
55313;DHT22;46892;45.668;11.756;2022-08-06T02:55:14;27.60;51.10
55313;DHT22;46892;45.668;11.756;2022-08-06T02:57:59;27.60;50.70
55313;DHT22;46892;45.668;11.756;2022-08-06T03:00:27;27.60;50.80
55313;DHT22;46892;45.668;11.756;2022-08-06T03:02:58;27.60;50.60
55313;DHT22;46892;45.668;11.756;2022-08-06T03:05:27;27.50;50.60
55313;DHT22;46892;45.668;11.756;2022-08-06T03:07:54;27.50;50.80
55313;DHT22;46892;45.668;11.756;2022-08-06T03:10:24;27.50;50.90
55313;DHT22;46892;45.668;11.756;2022-08-06T03:12:52;27.40;51.20
55313;DHT22;46892;45.668;11.756;2022-08-06T03:15:19;27.50;51.40
55313;DHT22;46892;45.668;11.756;2022-08-06T03:17:46;27.40;51.30
55313;DHT22;46892;45.668;11.756;2022-08-06T03:20:15;27.30;53.50
55313;DHT22;46892;45.668;11.756;2022-08-06T03:22:45;27.10;54.50
55313;DHT22;46892;45.668;11.756;2022-08-06T03:25:13;27.00;54.10
55313;DHT22;46892;45.668;11.756;2022-08-06T03:27:41;26.80;55.80
55313;DHT22;46892;45.668;11.756;2022-08-06T03:30:08;26.70;58.50
55313;DHT22;46892;45.668;11.756;2022-08-06T03:32:35;26.50;59.60
55313;DHT22;46892;45.668;11.756;2022-08-06T03:35:03;26.40;59.20
55313;DHT22;46892;45.668;11.756;2022-08-06T03:37:30;26.30;58.30
55313;DHT22;46892;45.668;11.756;2022-08-06T03:39:59;26.10;56.10
55313;DHT22;46892;45.668;11.756;2022-08-06T03:42:26;26.20;58.30
55313;DHT22;46892;45.668;11.756;2022-08-06T03:44:51;26.20;54.80
55313;DHT22;46892;45.668;11.756;2022-08-06T03:47:31;26.40;54.10
55313;DHT22;46892;45.668;11.756;2022-08-06T03:50:20;26.60;53.50
55313;DHT22;46892;45.668;11.756;2022-08-06T03:53:22;26.80;52.40
55313;DHT22;46892;45.668;11.756;2022-08-06T03:55:40;26.90;52.30
55313;DHT22;46892;45.668;11.756;2022-08-06T03:58:11;26.90;52.20
55313;DHT22;46892;45.668;11.756;2022-08-06T04:00:41;26.90;52.60
55313;DHT22;46892;45.668;11.756;2022-08-06T04:03:10;27.00;52.50
55313;DHT22;46892;45.668;11.756;2022-08-06T04:05:37;27.00;53.60
55313;DHT22;46892;45.668;11.756;2022-08-06T04:08:06;26.90;54.00
55313;DHT22;46892;45.668;11.756;2022-08-06T04:10:41;26.90;53.70
55313;DHT22;46892;45.668;11.756;2022-08-06T04:13:10;26.90;52.50
55313;DHT22;46892;45.668;11.756;2022-08-06T04:15:37;26.90;53.10
55313;DHT22;46892;45.668;11.756;2022-08-06T04:18:05;26.90;52.60
55313;DHT22;46892;45.668;11.756;2022-08-06T04:20:33;26.90;52.60
55313;DHT22;46892;45.668;11.756;2022-08-06T04:23:00;26.90;52.50
55313;DHT22;46892;45.668;11.756;2022-08-06T04:25:28;27.00;51.80
55313;DHT22;46892;45.668;11.756;2022-08-06T04:27:56;27.00;52.10
55313;DHT22;46892;45.668;11.756;2022-08-06T04:30:24;27.10;52.10
55313;DHT22;46892;45.668;11.756;2022-08-06T04:32:52;27.10;52.00
55313;DHT22;46892;45.668;11.756;2022-08-06T04:35:19;27.10;51.50
55313;DHT22;46892;45.668;11.756;2022-08-06T04:37:47;27.20;51.40
55313;DHT22;46892;45.668;11.756;2022-08-06T04:40:13;27.20;51.20
55313;DHT22;46892;45.668;11.756;2022-08-06T04:42:39;27.50;50.70
55313;DHT22;46892;45.668;11.756;2022-08-06T04:45:07;27.70;50.20
55313;DHT22;46892;45.668;11.756;2022-08-06T04:47:34;27.80;50.40
55313;DHT22;46892;45.668;11.756;2022-08-06T04:50:01;27.90;50.10
55313;DHT22;46892;45.668;11.756;2022-08-06T04:52:28;27.90;49.80
55313;DHT22;46892;45.668;11.756;2022-08-06T04:54:54;28.00;49.60
55313;DHT22;46892;45.668;11.756;2022-08-06T04:57:20;28.10;48.90
55313;DHT22;46892;45.668;11.756;2022-08-06T04:59:46;28.50;48.80
55313;DHT22;46892;45.668;11.756;2022-08-06T05:02:12;28.80;48.20
55313;DHT22;46892;45.668;11.756;2022-08-06T05:04:38;29.30;46.50
55313;DHT22;46892;45.668;11.756;2022-08-06T05:07:18;29.60;46.50
55313;DHT22;46892;45.668;11.756;2022-08-06T05:09:44;29.90;45.40
55313;DHT22;46892;45.668;11.756;2022-08-06T05:12:41;30.00;45.50
55313;DHT22;46892;45.668;11.756;2022-08-06T05:15:13;30.30;44.80
55313;DHT22;46892;45.668;11.756;2022-08-06T05:17:48;30.30;44.60
55313;DHT22;46892;45.668;11.756;2022-08-06T05:20:19;30.30;45.00
55313;DHT22;46892;45.668;11.756;2022-08-06T05:22:49;30.00;45.20
55313;DHT22;46892;45.668;11.756;2022-08-06T05:25:15;30.10;45.60
55313;DHT22;46892;45.668;11.756;2022-08-06T05:27:41;30.30;44.50
55313;DHT22;46892;45.668;11.756;2022-08-06T05:30:08;30.50;43.50
55313;DHT22;46892;45.668;11.756;2022-08-06T05:32:48;30.30;44.10
55313;DHT22;46892;45.668;11.756;2022-08-06T05:35:15;30.20;44.70
55313;DHT22;46892;45.668;11.756;2022-08-06T05:37:40;30.10;46.00
55313;DHT22;46892;45.668;11.756;2022-08-06T05:40:07;30.10;45.60
55313;DHT22;46892;45.668;11.756;2022-08-06T05:42:33;30.00;45.20
55313;DHT22;46892;45.668;11.756;2022-08-06T05:44:59;29.90;45.60
55313;DHT22;46892;45.668;11.756;2022-08-06T05:47:28;30.00;45.90
55313;DHT22;46892;45.668;11.756;2022-08-06T05:50:13;30.20;45.70
55313;DHT22;46892;45.668;11.756;2022-08-06T05:53:00;30.00;45.70
55313;DHT22;46892;45.668;11.756;2022-08-06T05:55:34;30.00;45.20
55313;DHT22;46892;45.668;11.756;2022-08-06T05:58:13;30.00;45.40
55313;DHT22;46892;45.668;11.756;2022-08-06T06:00:41;30.10;45.80
55313;DHT22;46892;45.668;11.756;2022-08-06T06:03:12;30.20;45.80
55313;DHT22;46892;45.668;11.756;2022-08-06T06:05:39;30.30;45.30
55313;DHT22;46892;45.668;11.756;2022-08-06T06:08:06;30.60;45.40
55313;DHT22;46892;45.668;11.756;2022-08-06T06:10:35;30.60;44.80
55313;DHT22;46892;45.668;11.756;2022-08-06T06:13:04;30.60;45.40
55313;DHT22;46892;45.668;11.756;2022-08-06T06:15:37;30.80;44.80
55313;DHT22;46892;45.668;11.756;2022-08-06T06:18:17;30.80;44.50
55313;DHT22;46892;45.668;11.756;2022-08-06T06:20:58;30.80;43.80
55313;DHT22;46892;45.668;11.756;2022-08-06T06:23:29;30.80;44.50
55313;DHT22;46892;45.668;11.756;2022-08-06T06:32:13;31.20;43.40
55313;DHT22;46892;45.668;11.756;2022-08-06T06:38:25;31.60;44.40
55313;DHT22;46892;45.668;11.756;2022-08-06T06:40:53;31.70;42.60
55313;DHT22;46892;45.668;11.756;2022-08-06T06:49:01;31.60;43.10
55313;DHT22;46892;45.668;11.756;2022-08-06T06:51:35;31.70;43.50
55313;DHT22;46892;45.668;11.756;2022-08-06T06:54:01;31.70;42.90
55313;DHT22;46892;45.668;11.756;2022-08-06T06:56:35;31.90;42.70
55313;DHT22;46892;45.668;11.756;2022-08-06T06:59:08;32.00;42.60
55313;DHT22;46892;45.668;11.756;2022-08-06T07:01:37;32.10;42.10
55313;DHT22;46892;45.668;11.756;2022-08-06T07:04:08;32.20;42.90
55313;DHT22;46892;45.668;11.756;2022-08-06T07:06:36;32.50;42.10
55313;DHT22;46892;45.668;11.756;2022-08-06T07:09:03;32.70;40.10
55313;DHT22;46892;45.668;11.756;2022-08-06T07:11:30;32.70;41.30
55313;DHT22;46892;45.668;11.756;2022-08-06T07:13:58;32.90;41.20
55313;DHT22;46892;45.668;11.756;2022-08-06T07:16:26;32.80;39.40
55313;DHT22;46892;45.668;11.756;2022-08-06T07:18:53;32.70;40.00
55313;DHT22;46892;45.668;11.756;2022-08-06T07:21:20;32.60;40.70
55313;DHT22;46892;45.668;11.756;2022-08-06T07:23:49;32.30;40.70
55313;DHT22;46892;45.668;11.756;2022-08-06T07:26:18;32.20;40.40
55313;DHT22;46892;45.668;11.756;2022-08-06T07:28:45;32.30;40.90
55313;DHT22;46892;45.668;11.756;2022-08-06T07:31:13;32.30;41.60
55313;DHT22;46892;45.668;11.756;2022-08-06T07:33:41;32.20;41.40
55313;DHT22;46892;45.668;11.756;2022-08-06T07:36:08;32.20;41.90
55313;DHT22;46892;45.668;11.756;2022-08-06T07:38:36;32.30;42.00
55313;DHT22;46892;45.668;11.756;2022-08-06T07:41:04;32.50;40.60
55313;DHT22;46892;45.668;11.756;2022-08-06T07:43:38;32.40;40.60
55313;DHT22;46892;45.668;11.756;2022-08-06T07:46:06;32.50;40.60
55313;DHT22;46892;45.668;11.756;2022-08-06T07:48:36;32.40;39.90
55313;DHT22;46892;45.668;11.756;2022-08-06T07:51:03;32.30;40.80
55313;DHT22;46892;45.668;11.756;2022-08-06T07:53:31;32.40;39.90
55313;DHT22;46892;45.668;11.756;2022-08-06T07:55:57;32.40;39.80
55313;DHT22;46892;45.668;11.756;2022-08-06T07:58:25;32.50;41.50
55313;DHT22;46892;45.668;11.756;2022-08-06T08:00:50;32.60;41.20
55313;DHT22;46892;45.668;11.756;2022-08-06T08:03:17;32.70;40.00
55313;DHT22;46892;45.668;11.756;2022-08-06T08:06:02;32.80;40.70
55313;DHT22;46892;45.668;11.756;2022-08-06T08:08:45;32.80;39.10
55313;DHT22;46892;45.668;11.756;2022-08-06T08:11:13;32.80;39.60
55313;DHT22;46892;45.668;11.756;2022-08-06T08:13:39;32.90;40.00
55313;DHT22;46892;45.668;11.756;2022-08-06T08:16:07;33.00;40.10
55313;DHT22;46892;45.668;11.756;2022-08-06T08:18:33;33.20;40.10
55313;DHT22;46892;45.668;11.756;2022-08-06T08:21:00;33.20;39.00
55313;DHT22;46892;45.668;11.756;2022-08-06T08:23:26;33.30;38.50
55313;DHT22;46892;45.668;11.756;2022-08-06T08:25:55;33.40;38.80
55313;DHT22;46892;45.668;11.756;2022-08-06T08:28:22;33.60;39.80
55313;DHT22;46892;45.668;11.756;2022-08-06T08:30:48;33.70;38.90
55313;DHT22;46892;45.668;11.756;2022-08-06T08:33:14;33.70;37.90
55313;DHT22;46892;45.668;11.756;2022-08-06T08:35:41;33.80;37.40
55313;DHT22;46892;45.668;11.756;2022-08-06T08:38:07;33.70;37.90
55313;DHT22;46892;45.668;11.756;2022-08-06T08:40:34;33.80;36.90
55313;DHT22;46892;45.668;11.756;2022-08-06T08:43:01;33.80;36.10
55313;DHT22;46892;45.668;11.756;2022-08-06T08:45:28;33.80;35.80
55313;DHT22;46892;45.668;11.756;2022-08-06T08:47:54;34.00;38.60
55313;DHT22;46892;45.668;11.756;2022-08-06T08:50:27;34.10;38.30
55313;DHT22;46892;45.668;11.756;2022-08-06T08:53:09;34.10;39.30
55313;DHT22;46892;45.668;11.756;2022-08-06T08:55:37;34.00;38.40
55313;DHT22;46892;45.668;11.756;2022-08-06T08:58:04;34.00;38.80
55313;DHT22;46892;45.668;11.756;2022-08-06T09:00:30;33.90;36.80
55313;DHT22;46892;45.668;11.756;2022-08-06T09:02:56;33.90;37.50
55313;DHT22;46892;45.668;11.756;2022-08-06T09:05:22;33.90;39.00
55313;DHT22;46892;45.668;11.756;2022-08-06T09:07:49;34.10;39.30
55313;DHT22;46892;45.668;11.756;2022-08-06T09:10:15;34.30;38.80
55313;DHT22;46892;45.668;11.756;2022-08-06T09:12:41;34.50;43.90
55313;DHT22;46892;45.668;11.756;2022-08-06T09:15:07;34.70;41.50
55313;DHT22;46892;45.668;11.756;2022-08-06T09:17:34;34.70;39.00
55313;DHT22;46892;45.668;11.756;2022-08-06T09:19:59;34.60;41.50
55313;DHT22;46892;45.668;11.756;2022-08-06T09:22:25;34.60;41.30
55313;DHT22;46892;45.668;11.756;2022-08-06T09:24:51;34.70;40.00
55313;DHT22;46892;45.668;11.756;2022-08-06T09:27:17;34.90;39.00
55313;DHT22;46892;45.668;11.756;2022-08-06T09:30:06;35.20;40.50
55313;DHT22;46892;45.668;11.756;2022-08-06T09:32:44;35.30;40.40
55313;DHT22;46892;45.668;11.756;2022-08-06T09:35:27;35.40;36.90
55313;DHT22;46892;45.668;11.756;2022-08-06T09:38:04;35.20;34.60
55313;DHT22;46892;45.668;11.756;2022-08-06T09:40:30;35.20;36.80
55313;DHT22;46892;45.668;11.756;2022-08-06T09:42:56;35.10;36.30
55313;DHT22;46892;45.668;11.756;2022-08-06T09:45:23;35.00;36.00
55313;DHT22;46892;45.668;11.756;2022-08-06T09:48:05;35.00;37.50
55313;DHT22;46892;45.668;11.756;2022-08-06T09:53:01;34.70;38.20
55313;DHT22;46892;45.668;11.756;2022-08-06T09:55:28;34.70;40.10
55313;DHT22;46892;45.668;11.756;2022-08-06T09:57:55;34.70;36.00
55313;DHT22;46892;45.668;11.756;2022-08-06T10:00:30;34.70;36.50
55313;DHT22;46892;45.668;11.756;2022-08-06T10:02:58;34.70;37.10
55313;DHT22;46892;45.668;11.756;2022-08-06T10:05:25;34.70;38.80
55313;DHT22;46892;45.668;11.756;2022-08-06T10:08:10;34.80;38.20
55313;DHT22;46892;45.668;11.756;2022-08-06T10:10:51;34.70;38.00
55313;DHT22;46892;45.668;11.756;2022-08-06T10:13:21;34.80;38.70
55313;DHT22;46892;45.668;11.756;2022-08-06T10:15:49;34.80;36.80
55313;DHT22;46892;45.668;11.756;2022-08-06T10:21:10;34.80;35.40
55313;DHT22;46892;45.668;11.756;2022-08-06T10:23:39;34.70;36.40
55313;DHT22;46892;45.668;11.756;2022-08-06T10:26:10;34.70;36.30
55313;DHT22;46892;45.668;11.756;2022-08-06T10:28:37;34.70;35.70
55313;DHT22;46892;45.668;11.756;2022-08-06T10:31:06;34.80;36.80
55313;DHT22;46892;45.668;11.756;2022-08-06T10:33:40;34.90;37.60
55313;DHT22;46892;45.668;11.756;2022-08-06T10:36:12;34.90;36.80
55313;DHT22;46892;45.668;11.756;2022-08-06T10:38:42;35.10;35.80
55313;DHT22;46892;45.668;11.756;2022-08-06T10:41:10;35.10;35.80
55313;DHT22;46892;45.668;11.756;2022-08-06T10:43:38;35.20;36.60
55313;DHT22;46892;45.668;11.756;2022-08-06T10:46:09;35.20;35.00
55313;DHT22;46892;45.668;11.756;2022-08-06T10:48:37;35.20;35.20
55313;DHT22;46892;45.668;11.756;2022-08-06T10:51:05;35.20;38.10
55313;DHT22;46892;45.668;11.756;2022-08-06T10:53:35;35.30;37.40
55313;DHT22;46892;45.668;11.756;2022-08-06T10:56:06;35.40;36.00
55313;DHT22;46892;45.668;11.756;2022-08-06T10:58:33;35.40;35.70
55313;DHT22;46892;45.668;11.756;2022-08-06T11:01:01;35.30;35.40
55313;DHT22;46892;45.668;11.756;2022-08-06T11:15:07;35.60;39.10
55313;DHT22;46892;45.668;11.756;2022-08-06T11:17:52;35.60;34.60
55313;DHT22;46892;45.668;11.756;2022-08-06T11:23:00;35.60;34.60
55313;DHT22;46892;45.668;11.756;2022-08-06T11:25:48;35.60;36.00
55313;DHT22;46892;45.668;11.756;2022-08-06T11:31:06;35.50;35.30
55313;DHT22;46892;45.668;11.756;2022-08-06T11:36:03;35.60;37.30
55313;DHT22;46892;45.668;11.756;2022-08-06T11:41:28;35.60;36.00
55313;DHT22;46892;45.668;11.756;2022-08-06T11:51:57;35.60;35.60
55313;DHT22;46892;45.668;11.756;2022-08-06T11:54:29;35.70;35.40
55313;DHT22;46892;45.668;11.756;2022-08-06T11:59:32;35.70;35.20
55313;DHT22;46892;45.668;11.756;2022-08-06T12:01:59;35.60;36.50
55313;DHT22;46892;45.668;11.756;2022-08-06T12:09:45;35.80;35.40
55313;DHT22;46892;45.668;11.756;2022-08-06T12:14:57;35.80;35.00
55313;DHT22;46892;45.668;11.756;2022-08-06T12:17:25;35.80;33.60
55313;DHT22;46892;45.668;11.756;2022-08-06T12:19:52;35.80;34.90
55313;DHT22;46892;45.668;11.756;2022-08-06T12:22:20;35.90;34.60
55313;DHT22;46892;45.668;11.756;2022-08-06T12:24:49;35.80;36.10
55313;DHT22;46892;45.668;11.756;2022-08-06T12:27:15;35.70;35.80
55313;DHT22;46892;45.668;11.756;2022-08-06T12:29:42;35.50;35.00
55313;DHT22;46892;45.668;11.756;2022-08-06T12:34:47;35.10;35.50
55313;DHT22;46892;45.668;11.756;2022-08-06T12:37:13;35.00;36.10
55313;DHT22;46892;45.668;11.756;2022-08-06T12:39:40;35.10;36.90
55313;DHT22;46892;45.668;11.756;2022-08-06T12:42:25;35.10;37.20
55313;DHT22;46892;45.668;11.756;2022-08-06T12:44:51;35.20;34.90
55313;DHT22;46892;45.668;11.756;2022-08-06T12:47:17;35.20;36.60
55313;DHT22;46892;45.668;11.756;2022-08-06T12:49:43;35.20;37.50
55313;DHT22;46892;45.668;11.756;2022-08-06T12:52:15;35.20;39.30
55313;DHT22;46892;45.668;11.756;2022-08-06T12:54:48;35.30;36.00
55313;DHT22;46892;45.668;11.756;2022-08-06T12:57:21;35.50;39.60
55313;DHT22;46892;45.668;11.756;2022-08-06T12:59:49;35.20;37.60
55313;DHT22;46892;45.668;11.756;2022-08-06T13:02:18;35.00;37.70
55313;DHT22;46892;45.668;11.756;2022-08-06T13:04:47;35.00;37.50
55313;DHT22;46892;45.668;11.756;2022-08-06T13:07:15;34.90;35.10
55313;DHT22;46892;45.668;11.756;2022-08-06T13:09:42;34.70;35.20
55313;DHT22;46892;45.668;11.756;2022-08-06T13:12:13;34.50;36.00
55313;DHT22;46892;45.668;11.756;2022-08-06T13:14:53;34.50;35.10
55313;DHT22;46892;45.668;11.756;2022-08-06T13:17:22;34.30;35.40
55313;DHT22;46892;45.668;11.756;2022-08-06T13:19:57;33.80;34.90
55313;DHT22;46892;45.668;11.756;2022-08-06T13:22:24;33.40;35.80
55313;DHT22;46892;45.668;11.756;2022-08-06T13:25:13;33.20;35.90
55313;DHT22;46892;45.668;11.756;2022-08-06T13:27:42;33.00;36.80
55313;DHT22;46892;45.668;11.756;2022-08-06T13:30:08;32.70;36.80
55313;DHT22;46892;45.668;11.756;2022-08-06T13:32:35;32.40;37.50
55313;DHT22;46892;45.668;11.756;2022-08-06T13:35:04;32.10;38.10
55313;DHT22;46892;45.668;11.756;2022-08-06T13:37:42;31.90;38.70
55313;DHT22;46892;45.668;11.756;2022-08-06T13:40:14;31.70;39.00
55313;DHT22;46892;45.668;11.756;2022-08-06T13:42:56;31.70;40.30
55313;DHT22;46892;45.668;11.756;2022-08-06T13:45:26;31.50;41.90
55313;DHT22;46892;45.668;11.756;2022-08-06T13:50:27;30.90;44.70
55313;DHT22;46892;45.668;11.756;2022-08-06T13:52:52;30.70;46.60
55313;DHT22;46892;45.668;11.756;2022-08-06T13:55:22;30.50;47.70
55313;DHT22;46892;45.668;11.756;2022-08-06T13:57:49;30.20;50.80
55313;DHT22;46892;45.668;11.756;2022-08-06T14:00:15;29.30;52.70
55313;DHT22;46892;45.668;11.756;2022-08-06T14:02:41;28.90;53.90
55313;DHT22;46892;45.668;11.756;2022-08-06T14:05:07;28.80;55.00
55313;DHT22;46892;45.668;11.756;2022-08-06T14:07:33;28.90;54.50
55313;DHT22;46892;45.668;11.756;2022-08-06T14:09:58;28.90;54.60
55313;DHT22;46892;45.668;11.756;2022-08-06T14:12:24;29.10;55.00
55313;DHT22;46892;45.668;11.756;2022-08-06T14:14:51;29.10;55.80
55313;DHT22;46892;45.668;11.756;2022-08-06T14:17:17;29.00;57.10
55313;DHT22;46892;45.668;11.756;2022-08-06T14:19:42;29.00;58.10
55313;DHT22;46892;45.668;11.756;2022-08-06T14:22:08;28.80;58.90
55313;DHT22;46892;45.668;11.756;2022-08-06T14:24:34;28.80;59.80
55313;DHT22;46892;45.668;11.756;2022-08-06T14:27:00;28.70;58.50
55313;DHT22;46892;45.668;11.756;2022-08-06T14:29:26;28.70;57.20
55313;DHT22;46892;45.668;11.756;2022-08-06T14:31:51;28.30;59.50
55313;DHT22;46892;45.668;11.756;2022-08-06T14:34:17;28.10;60.30
55313;DHT22;46892;45.668;11.756;2022-08-06T14:36:43;28.00;60.10
55313;DHT22;46892;45.668;11.756;2022-08-06T14:39:09;28.00;59.10
55313;DHT22;46892;45.668;11.756;2022-08-06T14:41:38;28.20;58.80
55313;DHT22;46892;45.668;11.756;2022-08-06T14:44:23;28.40;58.80
55313;DHT22;46892;45.668;11.756;2022-08-06T14:47:07;28.40;59.20
55313;DHT22;46892;45.668;11.756;2022-08-06T14:49:34;28.30;61.00
55313;DHT22;46892;45.668;11.756;2022-08-06T14:52:00;28.40;60.00
55313;DHT22;46892;45.668;11.756;2022-08-06T14:54:26;28.60;58.50
55313;DHT22;46892;45.668;11.756;2022-08-06T14:56:52;28.80;56.90
55313;DHT22;46892;45.668;11.756;2022-08-06T14:59:19;28.90;57.30
55313;DHT22;46892;45.668;11.756;2022-08-06T15:01:46;29.00;55.70
55313;DHT22;46892;45.668;11.756;2022-08-06T15:04:12;29.00;57.30
55313;DHT22;46892;45.668;11.756;2022-08-06T15:06:37;29.10;56.00
55313;DHT22;46892;45.668;11.756;2022-08-06T15:09:03;29.00;57.00
55313;DHT22;46892;45.668;11.756;2022-08-06T15:11:29;28.90;56.90
55313;DHT22;46892;45.668;11.756;2022-08-06T15:13:55;28.80;58.60
55313;DHT22;46892;45.668;11.756;2022-08-06T15:16:20;28.90;57.40
55313;DHT22;46892;45.668;11.756;2022-08-06T15:18:46;28.70;56.30
55313;DHT22;46892;45.668;11.756;2022-08-06T15:21:12;28.60;54.70
55313;DHT22;46892;45.668;11.756;2022-08-06T15:23:38;28.40;54.90
55313;DHT22;46892;45.668;11.756;2022-08-06T15:26:03;28.30;55.30
55313;DHT22;46892;45.668;11.756;2022-08-06T15:28:29;28.30;54.10
55313;DHT22;46892;45.668;11.756;2022-08-06T15:30:55;28.30;53.10
55313;DHT22;46892;45.668;11.756;2022-08-06T15:33:21;28.20;52.70
55313;DHT22;46892;45.668;11.756;2022-08-06T15:35:50;28.30;51.60
55313;DHT22;46892;45.668;11.756;2022-08-06T15:38:16;28.50;51.70
55313;DHT22;46892;45.668;11.756;2022-08-06T15:40:41;28.50;52.20
55313;DHT22;46892;45.668;11.756;2022-08-06T15:43:07;28.70;51.60
55313;DHT22;46892;45.668;11.756;2022-08-06T15:45:33;28.70;52.50
55313;DHT22;46892;45.668;11.756;2022-08-06T15:47:58;28.70;53.60
55313;DHT22;46892;45.668;11.756;2022-08-06T15:50:25;28.70;54.60
55313;DHT22;46892;45.668;11.756;2022-08-06T15:52:51;28.70;55.10
55313;DHT22;46892;45.668;11.756;2022-08-06T15:55:18;28.70;56.10
55313;DHT22;46892;45.668;11.756;2022-08-06T15:57:45;28.70;56.20
55313;DHT22;46892;45.668;11.756;2022-08-06T16:00:12;28.70;55.30
55313;DHT22;46892;45.668;11.756;2022-08-06T16:02:38;28.80;56.20
55313;DHT22;46892;45.668;11.756;2022-08-06T16:05:04;28.90;55.90
55313;DHT22;46892;45.668;11.756;2022-08-06T16:07:30;28.90;55.90
55313;DHT22;46892;45.668;11.756;2022-08-06T16:09:56;28.90;56.20
55313;DHT22;46892;45.668;11.756;2022-08-06T16:12:22;28.80;56.10
55313;DHT22;46892;45.668;11.756;2022-08-06T16:14:47;28.90;56.10
55313;DHT22;46892;45.668;11.756;2022-08-06T16:17:13;28.90;54.60
55313;DHT22;46892;45.668;11.756;2022-08-06T16:19:39;28.90;52.10
55313;DHT22;46892;45.668;11.756;2022-08-06T16:22:05;29.00;50.90
55313;DHT22;46892;45.668;11.756;2022-08-06T16:24:30;29.10;50.70
55313;DHT22;46892;45.668;11.756;2022-08-06T16:26:56;29.10;49.90
55313;DHT22;46892;45.668;11.756;2022-08-06T16:29:22;29.00;50.50
55313;DHT22;46892;45.668;11.756;2022-08-06T16:31:49;29.00;51.00
55313;DHT22;46892;45.668;11.756;2022-08-06T16:34:16;28.90;51.90
55313;DHT22;46892;45.668;11.756;2022-08-06T16:36:42;28.70;54.20
55313;DHT22;46892;45.668;11.756;2022-08-06T16:39:08;28.70;56.20
55313;DHT22;46892;45.668;11.756;2022-08-06T16:41:34;28.60;56.80